aviador You're here:

LFRB Decoded Metar

BREST in FRANCE
Report Time2018-05-28 07:30:00
UTC Time2018-05-28 07:54:31
Flight Rules ifr IFR
Wind010° at 04 kt
W.Decomp.*RWY 07: 2.2 kt HW 3.4 kt LCW
W.Rank010° ranks 26
Current wind is below 010° avg. (6.7)
Visibility5000 m
Phenomena:Mist
Clouds:Overcast 006 Hf
Ceiling600 ft
Temp14°C (ISA -0)
Dew Point14°C (100% RH)
AAT13.8°C
QNH1018 hPa
Density Alt344 ft
Elevation338 ft
Report Wrong Elevation
Raw Report
METAR LFRB 280730Z AUTO 01004KT 5000 BR OVC006 14/14 Q1018 BECMG BKN010=

Extra information for LFRB:More info

Metar Taf Metar & Taf Last 4 Metars F.Rules Stats Wind Profile Meteogram Temp Stats Airport Information Weather charts Add Link Nearby VenuesMetar ALERT Operation Metar Decoded Social comments